createdAt,value
2023-10-06T00:00:32.172Z,84.84
2023-10-06T00:02:58.411Z,85.25
2023-10-06T00:05:24.594Z,85.77
2023-10-06T00:07:50.887Z,85.67
2023-10-06T00:10:17.138Z,86.34
2023-10-06T00:12:43.352Z,86.09
2023-10-06T00:15:09.525Z,86.88
2023-10-06T00:17:35.879Z,87.24
2023-10-06T00:20:02.177Z,86.27
2023-10-06T00:22:28.510Z,86.71
2023-10-06T00:24:54.698Z,86.88
2023-10-06T00:27:20.932Z,86.92
2023-10-06T00:29:47.151Z,86.83
2023-10-06T00:32:13.465Z,86.55
2023-10-06T00:34:39.688Z,87.07
2023-10-06T00:37:05.866Z,87.18
2023-10-06T00:39:32.059Z,87.28
2023-10-06T00:41:58.226Z,88.01
2023-10-06T00:44:24.446Z,88.11
2023-10-06T00:46:50.749Z,88.31
2023-10-06T00:49:17.173Z,88.04
2023-10-06T00:51:44.476Z,87.93
2023-10-06T00:54:10.713Z,87.42
2023-10-06T00:56:36.970Z,88.29
2023-10-06T00:59:03.286Z,87.57
2023-10-06T01:01:29.549Z,87.46
2023-10-06T01:03:56.047Z,86.27
2023-10-06T01:06:22.420Z,86.43
2023-10-06T01:08:48.616Z,86.47
2023-10-06T01:11:14.791Z,87.29
2023-10-06T01:13:41.071Z,87.50
2023-10-06T01:16:07.309Z,87.42
2023-10-06T01:18:33.519Z,87.85
2023-10-06T01:20:59.735Z,87.83
2023-10-06T01:23:25.964Z,87.97
2023-10-06T01:25:52.192Z,87.99
2023-10-06T01:28:18.454Z,87.67
2023-10-06T01:30:44.674Z,87.90
2023-10-06T01:33:10.845Z,87.01
2023-10-06T01:35:37.183Z,87.62
2023-10-06T01:38:03.452Z,87.61
2023-10-06T01:40:29.680Z,86.86
2023-10-06T01:42:56.007Z,88.22
2023-10-06T01:45:22.324Z,88.45
2023-10-06T01:47:48.574Z,87.91
2023-10-06T01:50:14.796Z,87.92
2023-10-06T01:52:41.109Z,88.42
2023-10-06T01:55:07.365Z,88.58
2023-10-06T01:57:33.531Z,87.40
2023-10-06T01:59:59.723Z,87.89
2023-10-06T02:02:25.964Z,87.63
2023-10-06T02:04:52.281Z,87.19
2023-10-06T02:07:18.528Z,86.91
2023-10-06T02:09:44.720Z,86.81
2023-10-06T02:12:10.918Z,86.45
2023-10-06T02:14:37.328Z,87.08
2023-10-06T02:17:03.565Z,86.56
2023-10-06T02:19:29.810Z,87.27
2023-10-06T02:21:56.003Z,86.73
2023-10-06T02:24:22.226Z,87.44
2023-10-06T02:26:48.443Z,87.75
2023-10-06T02:29:14.630Z,87.92
2023-10-06T02:31:41.246Z,89.39
2023-10-06T02:34:07.492Z,89.51
2023-10-06T02:36:33.682Z,89.31
2023-10-06T02:38:59.862Z,88.75
2023-10-06T02:41:26.041Z,88.52
2023-10-06T02:43:52.233Z,87.98
2023-10-06T02:46:18.467Z,88.85
2023-10-06T02:48:44.635Z,87.89
2023-10-06T02:51:10.879Z,88.10
2023-10-06T02:53:37.152Z,88.00
2023-10-06T02:56:03.395Z,87.12
2023-10-06T02:58:29.603Z,87.43
2023-10-06T03:00:55.791Z,86.95
2023-10-06T03:03:22.039Z,87.01
2023-10-06T03:05:48.294Z,86.10
2023-10-06T03:08:14.506Z,86.70
2023-10-06T03:10:40.747Z,86.26
2023-10-06T03:13:06.924Z,86.82
2023-10-06T03:15:33.131Z,86.72
2023-10-06T03:17:59.410Z,86.82
2023-10-06T03:20:25.772Z,86.15
2023-10-06T03:22:52.009Z,86.44
2023-10-06T03:25:18.397Z,86.36
2023-10-06T03:27:44.703Z,86.47
2023-10-06T03:30:10.988Z,86.63
2023-10-06T03:32:37.342Z,86.22
2023-10-06T03:35:03.598Z,86.58
2023-10-06T03:37:29.799Z,86.36
2023-10-06T03:39:56.255Z,86.02
2023-10-06T03:42:22.458Z,86.82
2023-10-06T03:44:48.637Z,86.27
2023-10-06T03:47:14.882Z,86.08
2023-10-06T03:49:41.193Z,86.16
2023-10-06T03:52:07.449Z,85.90
2023-10-06T03:54:33.630Z,85.93
2023-10-06T03:56:59.846Z,85.76
2023-10-06T03:59:26.040Z,86.55
2023-10-06T04:01:52.326Z,86.33
2023-10-06T04:04:18.548Z,85.79
2023-10-06T04:06:44.737Z,85.71
2023-10-06T04:09:11.161Z,85.69
2023-10-06T04:11:37.541Z,85.79
2023-10-06T04:14:03.742Z,85.21
2023-10-06T04:16:29.939Z,84.73
2023-10-06T04:18:56.122Z,84.80
2023-10-06T04:21:22.381Z,85.08
2023-10-06T04:23:48.645Z,84.45
2023-10-06T04:26:14.889Z,84.17
2023-10-06T04:28:41.144Z,83.80
2023-10-06T04:31:07.389Z,83.91
2023-10-06T04:33:33.596Z,84.18
2023-10-06T04:35:59.770Z,83.87
2023-10-06T04:38:25.949Z,84.01
2023-10-06T04:40:52.148Z,83.93
2023-10-06T04:43:18.550Z,84.22
2023-10-06T04:45:44.829Z,84.31
2023-10-06T04:48:11.062Z,83.96
2023-10-06T04:50:37.237Z,83.64
2023-10-06T04:53:03.496Z,83.34
2023-10-06T04:55:29.671Z,82.89
2023-10-06T04:57:55.848Z,83.42
2023-10-06T05:00:22.019Z,83.01
2023-10-06T05:02:48.312Z,83.11
2023-10-06T05:05:14.632Z,82.24
2023-10-06T05:07:40.918Z,82.55
2023-10-06T05:10:07.141Z,82.15
2023-10-06T05:12:33.338Z,81.60
2023-10-06T05:14:59.503Z,82.28
2023-10-06T05:17:25.740Z,81.59
2023-10-06T05:19:52.055Z,81.29
2023-10-06T05:22:18.301Z,81.37
2023-10-06T05:24:44.498Z,81.49
2023-10-06T05:27:10.736Z,81.01
2023-10-06T05:29:37.060Z,81.44
2023-10-06T05:32:03.339Z,80.95
2023-10-06T05:34:29.579Z,81.23
2023-10-06T05:36:55.793Z,81.08
2023-10-06T05:39:22.031Z,80.93
2023-10-06T05:41:48.260Z,80.78
2023-10-06T05:44:14.468Z,80.54
2023-10-06T05:46:40.670Z,80.40
2023-10-06T05:49:07.036Z,80.13
2023-10-06T05:51:33.318Z,79.83
2023-10-06T05:53:59.596Z,79.48
2023-10-06T05:56:25.782Z,79.07
2023-10-06T05:58:52.094Z,79.85
2023-10-06T06:01:18.352Z,79.63
2023-10-06T06:03:44.661Z,79.01
2023-10-06T06:06:10.839Z,79.33
2023-10-06T06:08:37.039Z,79.56
2023-10-06T06:11:03.285Z,79.18
2023-10-06T06:13:29.566Z,79.23
2023-10-06T06:15:55.777Z,78.94
2023-10-06T06:18:22.065Z,79.33
2023-10-06T06:20:48.356Z,78.96
2023-10-06T06:23:14.648Z,79.13
2023-10-06T06:25:40.920Z,78.80
2023-10-06T06:28:07.409Z,78.61
2023-10-06T06:30:33.624Z,78.52
2023-10-06T06:33:00.285Z,78.51
2023-10-06T06:35:26.571Z,78.21
2023-10-06T06:37:52.851Z,77.34
2023-10-06T06:40:19.039Z,76.94
2023-10-06T06:42:45.202Z,76.79
2023-10-06T06:45:11.379Z,76.33
2023-10-06T06:47:37.621Z,75.84
2023-10-06T06:50:03.829Z,75.12
2023-10-06T06:52:30.019Z,74.89
2023-10-06T06:54:56.358Z,74.63
2023-10-06T06:57:22.560Z,73.87
2023-10-06T06:59:48.780Z,74.42
2023-10-06T07:02:15.283Z,73.15
2023-10-06T07:04:41.573Z,73.40
2023-10-06T07:07:07.725Z,72.77
2023-10-06T07:09:33.922Z,71.90
2023-10-06T07:12:00.072Z,72.15
2023-10-06T07:14:26.326Z,71.53
2023-10-06T07:16:52.583Z,70.91
2023-10-06T07:19:18.805Z,70.51
2023-10-06T07:21:45.035Z,68.53
2023-10-06T07:24:11.264Z,68.50
2023-10-06T07:26:37.653Z,67.63
2023-10-06T07:29:03.874Z,67.65
2023-10-06T07:31:30.121Z,66.96
2023-10-06T07:33:56.320Z,66.34
2023-10-06T07:36:22.491Z,65.96
2023-10-06T07:38:49.124Z,66.13
2023-10-06T07:41:15.464Z,65.27
2023-10-06T07:43:41.727Z,66.10
2023-10-06T07:46:08.030Z,65.91
2023-10-06T07:48:34.309Z,65.94
2023-10-06T07:51:00.520Z,65.26
2023-10-06T07:53:26.837Z,64.91
2023-10-06T07:55:53.045Z,64.77
2023-10-06T07:58:19.254Z,64.72
2023-10-06T08:00:45.472Z,64.32
2023-10-06T08:03:11.802Z,64.39
2023-10-06T08:05:38.023Z,64.56
2023-10-06T08:08:04.316Z,64.63
2023-10-06T08:10:30.528Z,64.41
2023-10-06T08:12:56.705Z,64.69
2023-10-06T08:15:23.074Z,63.41
2023-10-06T08:17:49.307Z,63.61
2023-10-06T08:20:15.583Z,63.52
2023-10-06T08:22:41.821Z,63.71
2023-10-06T08:25:08.181Z,63.87
2023-10-06T08:27:34.371Z,64.09
2023-10-06T08:30:00.781Z,63.57
2023-10-06T08:32:26.937Z,63.44
2023-10-06T08:34:53.187Z,63.50
2023-10-06T08:37:19.360Z,63.57
2023-10-06T08:39:45.545Z,64.00
2023-10-06T08:42:11.716Z,63.78
2023-10-06T08:44:37.974Z,63.33
2023-10-06T08:47:16.352Z,63.24
2023-10-06T08:49:50.396Z,62.83
2023-10-06T08:52:16.866Z,62.23
2023-10-06T08:54:43.077Z,62.36
2023-10-06T08:57:09.278Z,61.82
2023-10-06T08:59:35.470Z,62.19
2023-10-06T09:02:01.718Z,61.92
2023-10-06T09:04:27.889Z,60.39
2023-10-06T09:06:54.086Z,61.17
2023-10-06T09:09:20.253Z,61.40
2023-10-06T09:11:46.470Z,60.22
2023-10-06T09:14:13.163Z,59.96
2023-10-06T09:16:39.746Z,60.35
2023-10-06T09:19:06.609Z,59.39
2023-10-06T09:21:33.423Z,58.51
2023-10-06T09:23:59.683Z,58.21
2023-10-06T09:26:25.993Z,57.67
2023-10-06T09:28:52.436Z,57.94
2023-10-06T09:31:18.906Z,57.60
2023-10-06T09:33:45.128Z,55.63
2023-10-06T09:36:11.311Z,56.63
2023-10-06T09:38:37.545Z,56.10
2023-10-06T09:41:03.783Z,56.12
2023-10-06T09:43:30.010Z,55.94
2023-10-06T09:45:56.194Z,56.10
2023-10-06T09:48:22.466Z,54.98
2023-10-06T09:50:48.693Z,54.01
2023-10-06T09:53:14.957Z,54.09
2023-10-06T09:55:41.265Z,54.28
2023-10-06T09:58:07.546Z,54.51
2023-10-06T10:00:33.749Z,53.33
2023-10-06T10:03:00.115Z,52.47
2023-10-06T10:05:26.515Z,51.09
2023-10-06T10:07:52.761Z,49.73
2023-10-06T10:10:18.958Z,49.74
2023-10-06T10:12:45.298Z,50.30
2023-10-06T10:15:11.477Z,50.27
2023-10-06T10:17:37.671Z,49.22
2023-10-06T10:20:04.515Z,49.31
2023-10-06T10:22:31.057Z,49.08
2023-10-06T10:25:21.551Z,48.62
2023-10-06T10:27:43.587Z,48.21
2023-10-06T10:30:09.764Z,49.60
2023-10-06T10:32:36.030Z,49.89
2023-10-06T10:35:02.385Z,50.33
2023-10-06T10:37:28.698Z,51.29
2023-10-06T10:39:54.919Z,50.54
2023-10-06T10:42:21.108Z,49.84
2023-10-06T10:44:47.284Z,49.29
2023-10-06T10:47:13.481Z,49.04
2023-10-06T10:49:39.864Z,48.26
2023-10-06T10:52:06.087Z,47.97
2023-10-06T10:54:32.306Z,46.32
2023-10-06T10:56:58.991Z,45.98
2023-10-06T10:59:25.259Z,46.35
2023-10-06T11:01:51.578Z,45.16
2023-10-06T11:04:18.000Z,44.91
2023-10-06T11:06:44.165Z,43.58
2023-10-06T11:09:10.354Z,43.71
2023-10-06T11:11:36.507Z,43.96
2023-10-06T11:14:04.125Z,42.99
2023-10-06T11:16:31.061Z,43.51
2023-10-06T11:18:57.282Z,44.73
2023-10-06T11:21:23.488Z,45.33
2023-10-06T11:23:49.682Z,45.60
2023-10-06T11:26:15.981Z,45.86
2023-10-06T11:28:42.208Z,46.38
2023-10-06T11:31:08.435Z,47.79
2023-10-06T11:33:34.715Z,48.71
2023-10-06T11:36:00.896Z,48.88
2023-10-06T11:38:27.790Z,49.14
2023-10-06T11:40:54.029Z,48.67
2023-10-06T11:43:20.438Z,48.21
2023-10-06T11:45:46.632Z,48.40
2023-10-06T11:48:12.963Z,49.94
2023-10-06T11:50:39.293Z,49.75
2023-10-06T11:53:05.604Z,49.38
2023-10-06T11:55:31.867Z,49.27
2023-10-06T11:57:58.045Z,49.12
2023-10-06T12:00:24.238Z,46.38
2023-10-06T12:02:50.610Z,44.56
2023-10-06T12:05:16.910Z,43.94
2023-10-06T12:07:43.186Z,44.64
2023-10-06T12:10:09.456Z,44.86
2023-10-06T12:12:35.630Z,44.40
2023-10-06T12:15:01.823Z,43.64
2023-10-06T12:17:28.061Z,42.13
2023-10-06T12:19:54.383Z,40.71
2023-10-06T12:22:30.031Z,39.59
2023-10-06T12:25:06.705Z,39.61
2023-10-06T12:27:32.905Z,39.55
2023-10-06T12:29:59.120Z,40.49
2023-10-06T12:32:25.394Z,41.87
2023-10-06T12:34:51.633Z,42.75
2023-10-06T12:37:17.806Z,42.85
2023-10-06T12:39:44.052Z,42.57
2023-10-06T12:42:10.271Z,42.08
2023-10-06T12:44:36.566Z,42.60
2023-10-06T12:47:02.845Z,42.38
2023-10-06T12:49:30.327Z,43.06
2023-10-06T12:51:56.770Z,43.42
2023-10-06T12:54:23.154Z,42.13
2023-10-06T12:56:49.370Z,41.68
2023-10-06T12:59:15.628Z,39.43
2023-10-06T13:01:41.969Z,36.84
2023-10-06T13:04:08.317Z,35.90
2023-10-06T13:06:34.637Z,35.42
2023-10-06T13:09:00.852Z,36.41
2023-10-06T13:11:27.145Z,36.73
2023-10-06T13:13:53.473Z,37.40
2023-10-06T13:16:19.850Z,38.39
2023-10-06T13:18:46.088Z,38.43
2023-10-06T13:21:12.311Z,38.00
2023-10-06T13:23:38.525Z,37.75
2023-10-06T13:26:04.864Z,36.93
2023-10-06T13:28:31.142Z,36.74
2023-10-06T13:30:57.357Z,36.88
2023-10-06T13:33:23.763Z,36.89
2023-10-06T13:35:50.084Z,36.88
2023-10-06T13:38:16.273Z,37.12
2023-10-06T13:40:42.507Z,38.75
2023-10-06T13:43:08.825Z,39.70
2023-10-06T13:45:35.050Z,40.71
2023-10-06T13:48:04.319Z,41.70
2023-10-06T13:50:31.389Z,42.85
2023-10-06T13:52:57.699Z,43.98
2023-10-06T13:55:23.980Z,45.36
2023-10-06T13:57:50.200Z,45.98
2023-10-06T14:00:16.435Z,45.84
2023-10-06T14:02:42.760Z,46.27
2023-10-06T14:05:09.119Z,47.14
2023-10-06T14:07:35.330Z,45.81
2023-10-06T14:10:01.522Z,46.29
2023-10-06T14:12:28.462Z,46.46
2023-10-06T14:14:58.261Z,46.95
2023-10-06T14:17:26.514Z,47.42
2023-10-06T14:19:55.257Z,47.70
2023-10-06T14:22:24.739Z,47.87
2023-10-06T14:24:55.054Z,47.53
2023-10-06T14:27:21.639Z,48.88
2023-10-06T14:29:52.275Z,47.62
2023-10-06T14:32:18.624Z,48.09
2023-10-06T14:34:44.863Z,48.25
2023-10-06T14:37:11.065Z,47.31
2023-10-06T14:39:37.315Z,47.75
2023-10-06T14:42:03.528Z,47.53
2023-10-06T14:44:29.784Z,47.72
2023-10-06T14:46:56.082Z,47.01
2023-10-06T14:49:22.381Z,47.38
2023-10-06T14:51:51.383Z,46.42
2023-10-06T14:54:17.697Z,47.22
2023-10-06T14:56:43.908Z,46.81
2023-10-06T14:59:10.298Z,46.59
2023-10-06T15:01:36.623Z,46.76
2023-10-06T15:04:05.782Z,46.42
2023-10-06T15:06:32.396Z,44.76
2023-10-06T15:08:58.653Z,44.29
2023-10-06T15:11:24.932Z,42.17
2023-10-06T15:13:51.196Z,41.86
2023-10-06T15:16:17.485Z,41.57
2023-10-06T15:18:43.751Z,41.97
2023-10-06T15:21:10.037Z,42.41
2023-10-06T15:23:36.269Z,42.94
2023-10-06T15:26:05.283Z,43.53
2023-10-06T15:28:39.080Z,43.99
2023-10-06T15:31:05.986Z,45.45
2023-10-06T15:33:32.404Z,45.99
2023-10-06T15:35:58.639Z,45.74
2023-10-06T15:38:24.931Z,46.29
2023-10-06T15:40:51.157Z,46.98
2023-10-06T15:43:20.898Z,47.90
2023-10-06T15:45:47.469Z,47.96
2023-10-06T15:48:13.803Z,48.77
2023-10-06T15:50:40.046Z,48.88
2023-10-06T15:53:06.368Z,49.72
2023-10-06T15:55:32.626Z,50.19
2023-10-06T15:57:58.862Z,51.56
2023-10-06T16:00:25.113Z,51.82
2023-10-06T16:02:51.438Z,52.22
2023-10-06T16:05:17.676Z,51.88
2023-10-06T16:07:43.897Z,52.85
2023-10-06T16:10:10.887Z,53.00
2023-10-06T16:12:37.132Z,53.35
2023-10-06T16:15:03.289Z,54.13
2023-10-06T16:17:29.589Z,53.52
2023-10-06T16:19:55.838Z,54.37
2023-10-06T16:22:22.026Z,54.29
2023-10-06T16:24:48.239Z,54.45
2023-10-06T16:27:14.449Z,55.40
2023-10-06T16:29:41.011Z,55.26
2023-10-06T16:32:07.481Z,56.07
2023-10-06T16:34:33.818Z,56.14
2023-10-06T16:37:00.021Z,55.80
2023-10-06T16:39:26.246Z,56.50
2023-10-06T16:41:52.465Z,56.59
2023-10-06T16:44:18.764Z,56.70
2023-10-06T16:46:44.990Z,56.61
2023-10-06T16:49:11.464Z,57.36
2023-10-06T16:51:37.999Z,57.04
2023-10-06T16:54:04.228Z,57.25
2023-10-06T16:56:30.783Z,57.62
2023-10-06T16:58:57.032Z,58.00
2023-10-06T17:01:23.299Z,58.09
2023-10-06T17:03:49.643Z,58.49
2023-10-06T17:06:16.013Z,58.82
2023-10-06T17:08:42.298Z,58.75
2023-10-06T17:11:08.642Z,58.84
2023-10-06T17:13:34.841Z,58.90
2023-10-06T17:16:01.154Z,58.85
2023-10-06T17:18:27.476Z,58.79
2023-10-06T17:20:53.805Z,58.99
2023-10-06T17:23:20.109Z,59.17
2023-10-06T17:25:46.333Z,59.47
2023-10-06T17:28:12.522Z,59.56
2023-10-06T17:30:38.734Z,59.86
2023-10-06T17:33:05.029Z,59.76
2023-10-06T17:35:31.433Z,59.84
2023-10-06T17:37:57.698Z,60.38
2023-10-06T17:40:23.914Z,60.03
2023-10-06T17:42:50.118Z,60.31
2023-10-06T17:45:16.381Z,60.38
2023-10-06T17:47:42.614Z,60.73
2023-10-06T17:50:08.798Z,60.96
2023-10-06T17:52:35.061Z,61.33
2023-10-06T17:55:01.240Z,61.22
2023-10-06T17:57:27.468Z,62.02
2023-10-06T17:59:53.676Z,61.52
2023-10-06T18:02:20.006Z,61.96
2023-10-06T18:04:46.427Z,61.86
2023-10-06T18:07:12.746Z,61.99
2023-10-06T18:09:38.961Z,62.37
2023-10-06T18:12:24.108Z,62.64
2023-10-06T18:14:51.342Z,62.68
2023-10-06T18:17:17.527Z,62.48
2023-10-06T18:19:43.837Z,62.77
2023-10-06T18:22:10.053Z,62.85
2023-10-06T18:24:36.257Z,62.71
2023-10-06T18:27:02.484Z,62.60
2023-10-06T18:29:28.735Z,63.25
2023-10-06T18:31:55.087Z,63.41
2023-10-06T18:34:21.424Z,62.80
2023-10-06T18:36:47.757Z,63.04
2023-10-06T18:39:14.007Z,63.19
2023-10-06T18:41:40.221Z,63.34
2023-10-06T18:44:06.443Z,63.08
2023-10-06T18:46:32.807Z,62.78
2023-10-06T18:48:59.117Z,62.89
2023-10-06T18:51:25.303Z,62.87
2023-10-06T18:53:51.489Z,62.92
2023-10-06T18:56:17.711Z,62.65
2023-10-06T18:58:44.013Z,62.81
2023-10-06T19:01:10.282Z,63.01
2023-10-06T19:03:36.582Z,62.77
2023-10-06T19:06:02.841Z,62.72
2023-10-06T19:08:29.033Z,63.03
2023-10-06T19:10:55.316Z,63.13
2023-10-06T19:13:21.520Z,63.13
2023-10-06T19:15:47.791Z,63.28
2023-10-06T19:18:14.018Z,63.34
2023-10-06T19:20:40.219Z,63.28
2023-10-06T19:23:06.480Z,63.27
2023-10-06T19:25:32.738Z,63.62
2023-10-06T19:27:58.932Z,63.65
2023-10-06T19:30:25.183Z,63.45
2023-10-06T19:32:51.488Z,63.32
2023-10-06T19:35:17.734Z,63.93
2023-10-06T19:37:44.036Z,63.83
2023-10-06T19:40:10.259Z,63.57
2023-10-06T19:42:36.426Z,63.90
2023-10-06T19:45:02.648Z,64.24
2023-10-06T19:47:29.044Z,64.50
2023-10-06T19:49:55.376Z,64.40
2023-10-06T19:52:21.653Z,64.30
2023-10-06T19:54:47.864Z,64.56
2023-10-06T19:57:14.088Z,64.61
2023-10-06T19:59:40.307Z,64.97
2023-10-06T20:02:06.667Z,64.80
2023-10-06T20:04:33.097Z,65.04
2023-10-06T20:06:59.487Z,64.89
2023-10-06T20:09:25.669Z,65.29
2023-10-06T20:11:51.873Z,65.43
2023-10-06T20:14:18.068Z,65.12
2023-10-06T20:16:44.426Z,65.54
2023-10-06T20:19:10.899Z,65.83
2023-10-06T20:21:37.214Z,65.80
2023-10-06T20:24:03.407Z,65.52
2023-10-06T20:26:29.613Z,65.86
2023-10-06T20:28:55.846Z,65.82
2023-10-06T20:31:22.114Z,65.83
2023-10-06T20:33:48.345Z,66.13
2023-10-06T20:36:14.555Z,66.22
2023-10-06T20:38:40.754Z,66.04
2023-10-06T20:41:06.994Z,66.44
2023-10-06T20:43:33.244Z,66.23
2023-10-06T20:45:59.510Z,66.33
2023-10-06T20:48:25.747Z,66.41
2023-10-06T20:50:52.007Z,66.60
2023-10-06T20:53:18.203Z,66.67
2023-10-06T20:55:44.452Z,66.85
2023-10-06T20:58:10.802Z,66.77
2023-10-06T21:00:37.126Z,67.12
2023-10-06T21:03:03.440Z,66.80
2023-10-06T21:05:29.786Z,66.42
2023-10-06T21:07:56.136Z,66.73
2023-10-06T21:10:22.640Z,66.80
2023-10-06T21:12:48.821Z,67.22
2023-10-06T21:15:15.748Z,66.86
2023-10-06T21:17:42.462Z,66.72
2023-10-06T21:20:08.833Z,66.86
2023-10-06T21:22:35.142Z,66.91
2023-10-06T21:25:01.553Z,67.10
2023-10-06T21:27:27.798Z,67.32
2023-10-06T21:29:53.983Z,67.19
2023-10-06T21:32:20.198Z,67.28
2023-10-06T21:34:46.414Z,67.18
2023-10-06T21:37:12.687Z,67.33
2023-10-06T21:39:38.893Z,67.73
2023-10-06T21:42:05.268Z,67.70
2023-10-06T21:44:31.469Z,67.87
2023-10-06T21:46:57.833Z,67.58
2023-10-06T21:49:24.065Z,67.54
2023-10-06T21:51:50.372Z,67.75
2023-10-06T21:54:16.581Z,67.80
2023-10-06T21:56:42.977Z,67.97
2023-10-06T21:59:09.224Z,67.91
2023-10-06T22:01:35.539Z,67.82
2023-10-06T22:04:02.099Z,68.00
2023-10-06T22:06:28.392Z,68.05
2023-10-06T22:08:54.595Z,68.13
2023-10-06T22:11:20.799Z,68.27
2023-10-06T22:13:47.060Z,68.41
2023-10-06T22:16:13.379Z,68.17
2023-10-06T22:18:40.098Z,68.43
2023-10-06T22:21:06.284Z,68.10
2023-10-06T22:23:32.469Z,68.17
2023-10-06T22:25:58.699Z,67.98
2023-10-06T22:28:24.959Z,68.26
2023-10-06T22:30:51.156Z,68.15
2023-10-06T22:33:17.438Z,68.14
2023-10-06T22:35:43.767Z,68.30
2023-10-06T22:38:09.969Z,68.53
2023-10-06T22:40:36.191Z,68.51
2023-10-06T22:43:02.380Z,68.21
2023-10-06T22:45:28.592Z,68.72
2023-10-06T22:47:54.832Z,68.73
2023-10-06T22:50:21.070Z,68.87
2023-10-06T22:52:48.185Z,68.36
2023-10-06T22:55:14.467Z,68.33
2023-10-06T22:57:40.652Z,68.48
2023-10-06T23:00:06.868Z,68.57
2023-10-06T23:02:33.343Z,68.62
2023-10-06T23:04:59.898Z,68.94
2023-10-06T23:07:26.152Z,68.43
2023-10-06T23:09:52.377Z,68.37
2023-10-06T23:12:18.742Z,68.21
2023-10-06T23:14:44.952Z,68.16
2023-10-06T23:17:11.225Z,68.26
2023-10-06T23:19:37.588Z,67.79
2023-10-06T23:22:03.831Z,67.72
2023-10-06T23:24:30.056Z,67.58
2023-10-06T23:26:56.236Z,66.98
2023-10-06T23:29:22.533Z,66.81
2023-10-06T23:31:48.754Z,66.83
2023-10-06T23:34:15.034Z,66.50
2023-10-06T23:36:41.266Z,65.75
2023-10-06T23:39:07.499Z,66.11
2023-10-06T23:41:33.725Z,65.65
2023-10-06T23:43:59.957Z,65.94
2023-10-06T23:46:26.215Z,65.80
2023-10-06T23:48:52.427Z,66.11
2023-10-06T23:51:18.609Z,66.05
2023-10-06T23:53:44.810Z,66.02
2023-10-06T23:56:11.007Z,66.49
2023-10-06T23:58:37.220Z,66.77
